sensor_id;sensor_type;location;lat;lon;timestamp;temperature;humidity
15359;DHT22;7779;49.596;11.070;2023-06-14T00:01:57;16.10;45.00
15359;DHT22;7779;49.596;11.070;2023-06-14T00:04:23;16.10;45.20
15359;DHT22;7779;49.596;11.070;2023-06-14T00:06:51;16.10;45.40
15359;DHT22;7779;49.596;11.070;2023-06-14T00:09:16;16.00;45.40
15359;DHT22;7779;49.596;11.070;2023-06-14T00:11:45;15.90;45.50
15359;DHT22;7779;49.596;11.070;2023-06-14T00:14:10;15.90;45.60
15359;DHT22;7779;49.596;11.070;2023-06-14T00:16:36;15.80;45.60
15359;DHT22;7779;49.596;11.070;2023-06-14T00:19:02;15.80;45.90
15359;DHT22;7779;49.596;11.070;2023-06-14T00:21:31;15.70;46.00
15359;DHT22;7779;49.596;11.070;2023-06-14T00:24:01;15.70;46.00
15359;DHT22;7779;49.596;11.070;2023-06-14T00:26:26;15.70;46.60
15359;DHT22;7779;49.596;11.070;2023-06-14T00:28:53;15.50;47.10
15359;DHT22;7779;49.596;11.070;2023-06-14T00:31:19;15.50;46.30
15359;DHT22;7779;49.596;11.070;2023-06-14T00:33:46;15.50;46.50
15359;DHT22;7779;49.596;11.070;2023-06-14T00:36:12;15.40;46.60
15359;DHT22;7779;49.596;11.070;2023-06-14T00:38:39;15.30;46.60
15359;DHT22;7779;49.596;11.070;2023-06-14T00:41:05;15.30;46.70
15359;DHT22;7779;49.596;11.070;2023-06-14T00:43:30;15.30;46.80
15359;DHT22;7779;49.596;11.070;2023-06-14T00:45:56;15.20;46.90
15359;DHT22;7779;49.596;11.070;2023-06-14T00:48:22;15.10;47.00
15359;DHT22;7779;49.596;11.070;2023-06-14T00:50:49;15.10;47.10
15359;DHT22;7779;49.596;11.070;2023-06-14T00:53:18;15.00;47.20
15359;DHT22;7779;49.596;11.070;2023-06-14T00:55:46;14.90;47.30
15359;DHT22;7779;49.596;11.070;2023-06-14T00:58:16;14.90;47.40
15359;DHT22;7779;49.596;11.070;2023-06-14T01:00:42;14.90;47.60
15359;DHT22;7779;49.596;11.070;2023-06-14T01:03:08;14.80;47.60
15359;DHT22;7779;49.596;11.070;2023-06-14T01:05:38;14.80;47.70
15359;DHT22;7779;49.596;11.070;2023-06-14T01:08:27;14.70;47.70
15359;DHT22;7779;49.596;11.070;2023-06-14T01:11:10;14.70;48.60
15359;DHT22;7779;49.596;11.070;2023-06-14T01:13:46;14.60;48.20
15359;DHT22;7779;49.596;11.070;2023-06-14T01:16:15;14.50;49.00
15359;DHT22;7779;49.596;11.070;2023-06-14T01:18:43;14.50;48.00
15359;DHT22;7779;49.596;11.070;2023-06-14T01:21:23;14.50;48.20
15359;DHT22;7779;49.596;11.070;2023-06-14T01:23:50;14.50;48.80
15359;DHT22;7779;49.596;11.070;2023-06-14T01:26:19;14.50;48.20
15359;DHT22;7779;49.596;11.070;2023-06-14T01:28:49;14.50;48.30
15359;DHT22;7779;49.596;11.070;2023-06-14T01:31:21;14.50;48.40
15359;DHT22;7779;49.596;11.070;2023-06-14T01:33:49;14.50;48.50
15359;DHT22;7779;49.596;11.070;2023-06-14T01:36:18;14.50;48.40
15359;DHT22;7779;49.596;11.070;2023-06-14T01:38:46;14.60;48.40
15359;DHT22;7779;49.596;11.070;2023-06-14T01:41:14;14.70;48.40
15359;DHT22;7779;49.596;11.070;2023-06-14T01:43:41;14.80;48.40
15359;DHT22;7779;49.596;11.070;2023-06-14T01:46:08;14.80;48.30
15359;DHT22;7779;49.596;11.070;2023-06-14T01:48:35;14.80;48.30
15359;DHT22;7779;49.596;11.070;2023-06-14T01:51:02;14.90;48.20
15359;DHT22;7779;49.596;11.070;2023-06-14T01:53:28;14.90;48.20
15359;DHT22;7779;49.596;11.070;2023-06-14T01:55:55;15.00;48.20
15359;DHT22;7779;49.596;11.070;2023-06-14T01:58:21;15.00;48.10
15359;DHT22;7779;49.596;11.070;2023-06-14T02:00:47;15.10;48.10
15359;DHT22;7779;49.596;11.070;2023-06-14T02:03:13;15.10;48.20
15359;DHT22;7779;49.596;11.070;2023-06-14T02:05:38;15.10;48.20
15359;DHT22;7779;49.596;11.070;2023-06-14T02:08:06;15.10;48.30
15359;DHT22;7779;49.596;11.070;2023-06-14T02:10:32;15.10;48.20
15359;DHT22;7779;49.596;11.070;2023-06-14T02:12:58;15.00;48.20
15359;DHT22;7779;49.596;11.070;2023-06-14T02:15:24;14.90;48.20
15359;DHT22;7779;49.596;11.070;2023-06-14T02:17:49;14.90;48.30
15359;DHT22;7779;49.596;11.070;2023-06-14T02:20:16;14.80;48.30
15359;DHT22;7779;49.596;11.070;2023-06-14T02:22:42;14.80;48.30
15359;DHT22;7779;49.596;11.070;2023-06-14T02:25:08;14.70;48.90
15359;DHT22;7779;49.596;11.070;2023-06-14T02:27:35;14.70;48.50
15359;DHT22;7779;49.596;11.070;2023-06-14T02:30:03;14.60;49.40
15359;DHT22;7779;49.596;11.070;2023-06-14T02:32:32;14.50;48.50
15359;DHT22;7779;49.596;11.070;2023-06-14T02:34:59;14.50;48.70
15359;DHT22;7779;49.596;11.070;2023-06-14T02:37:25;14.40;48.80
15359;DHT22;7779;49.596;11.070;2023-06-14T02:39:52;14.40;49.00
15359;DHT22;7779;49.596;11.070;2023-06-14T02:42:18;14.30;49.10
15359;DHT22;7779;49.596;11.070;2023-06-14T02:44:44;14.20;49.20
15359;DHT22;7779;49.596;11.070;2023-06-14T02:47:12;14.20;49.30
15359;DHT22;7779;49.596;11.070;2023-06-14T02:49:37;14.10;49.40
15359;DHT22;7779;49.596;11.070;2023-06-14T02:52:03;14.00;49.40
15359;DHT22;7779;49.596;11.070;2023-06-14T02:54:30;14.00;49.50
15359;DHT22;7779;49.596;11.070;2023-06-14T02:56:57;13.90;49.60
15359;DHT22;7779;49.596;11.070;2023-06-14T02:59:23;13.90;49.80
15359;DHT22;7779;49.596;11.070;2023-06-14T03:01:52;13.80;49.90
15359;DHT22;7779;49.596;11.070;2023-06-14T03:04:18;13.70;49.90
15359;DHT22;7779;49.596;11.070;2023-06-14T03:06:45;13.70;50.10
15359;DHT22;7779;49.596;11.070;2023-06-14T03:09:18;13.60;50.20
15359;DHT22;7779;49.596;11.070;2023-06-14T03:11:45;13.60;50.30
15359;DHT22;7779;49.596;11.070;2023-06-14T03:14:10;13.60;50.40
15359;DHT22;7779;49.596;11.070;2023-06-14T03:16:37;13.50;50.50
15359;DHT22;7779;49.596;11.070;2023-06-14T03:19:03;13.50;50.50
15359;DHT22;7779;49.596;11.070;2023-06-14T03:21:31;13.50;50.60
15359;DHT22;7779;49.596;11.070;2023-06-14T03:24:00;13.40;50.70
15359;DHT22;7779;49.596;11.070;2023-06-14T03:26:25;13.40;50.90
15359;DHT22;7779;49.596;11.070;2023-06-14T03:28:54;13.40;51.00
15359;DHT22;7779;49.596;11.070;2023-06-14T03:31:21;13.30;51.10
15359;DHT22;7779;49.596;11.070;2023-06-14T03:33:49;13.30;51.20
15359;DHT22;7779;49.596;11.070;2023-06-14T03:36:15;13.30;51.30
15359;DHT22;7779;49.596;11.070;2023-06-14T03:38:43;13.20;51.30
15359;DHT22;7779;49.596;11.070;2023-06-14T03:41:09;13.20;51.40
15359;DHT22;7779;49.596;11.070;2023-06-14T03:43:35;13.20;51.50
15359;DHT22;7779;49.596;11.070;2023-06-14T03:46:01;13.20;51.60
15359;DHT22;7779;49.596;11.070;2023-06-14T03:48:29;13.20;51.90
15359;DHT22;7779;49.596;11.070;2023-06-14T03:50:55;13.30;52.20
15359;DHT22;7779;49.596;11.070;2023-06-14T03:53:21;13.30;52.50
15359;DHT22;7779;49.596;11.070;2023-06-14T03:55:50;13.40;52.70
15359;DHT22;7779;49.596;11.070;2023-06-14T03:58:18;13.50;52.60
15359;DHT22;7779;49.596;11.070;2023-06-14T04:00:45;13.60;52.60
15359;DHT22;7779;49.596;11.070;2023-06-14T04:03:11;13.70;52.50
15359;DHT22;7779;49.596;11.070;2023-06-14T04:05:39;13.70;52.40
15359;DHT22;7779;49.596;11.070;2023-06-14T04:08:08;13.80;52.40
15359;DHT22;7779;49.596;11.070;2023-06-14T04:10:35;13.80;52.40
15359;DHT22;7779;49.596;11.070;2023-06-14T04:13:01;13.80;52.40
15359;DHT22;7779;49.596;11.070;2023-06-14T04:15:27;13.90;53.00
15359;DHT22;7779;49.596;11.070;2023-06-14T04:17:57;13.90;52.50
15359;DHT22;7779;49.596;11.070;2023-06-14T04:20:23;13.90;52.40
15359;DHT22;7779;49.596;11.070;2023-06-14T04:22:51;14.00;52.50
15359;DHT22;7779;49.596;11.070;2023-06-14T04:25:18;13.90;52.40
15359;DHT22;7779;49.596;11.070;2023-06-14T04:27:44;14.00;52.50
15359;DHT22;7779;49.596;11.070;2023-06-14T04:30:10;14.00;53.60
15359;DHT22;7779;49.596;11.070;2023-06-14T04:32:42;14.10;52.90
15359;DHT22;7779;49.596;11.070;2023-06-14T04:35:11;14.20;53.10
15359;DHT22;7779;49.596;11.070;2023-06-14T04:37:39;14.30;53.30
15359;DHT22;7779;49.596;11.070;2023-06-14T04:40:07;14.40;53.40
15359;DHT22;7779;49.596;11.070;2023-06-14T04:42:35;14.50;53.40
15359;DHT22;7779;49.596;11.070;2023-06-14T04:45:02;14.60;53.40
15359;DHT22;7779;49.596;11.070;2023-06-14T04:47:28;14.70;53.60
15359;DHT22;7779;49.596;11.070;2023-06-14T04:49:57;14.80;53.80
15359;DHT22;7779;49.596;11.070;2023-06-14T04:52:23;15.00;54.10
15359;DHT22;7779;49.596;11.070;2023-06-14T04:57:20;15.40;53.90
15359;DHT22;7779;49.596;11.070;2023-06-14T04:59:49;15.50;54.50
15359;DHT22;7779;49.596;11.070;2023-06-14T05:02:24;15.80;54.60
15359;DHT22;7779;49.596;11.070;2023-06-14T05:04:51;16.00;55.50
15359;DHT22;7779;49.596;11.070;2023-06-14T05:07:18;16.30;54.90
15359;DHT22;7779;49.596;11.070;2023-06-14T05:09:44;16.60;54.80
15359;DHT22;7779;49.596;11.070;2023-06-14T05:12:12;16.90;54.60
15359;DHT22;7779;49.596;11.070;2023-06-14T05:14:38;17.20;55.00
15359;DHT22;7779;49.596;11.070;2023-06-14T05:17:05;17.40;53.80
15359;DHT22;7779;49.596;11.070;2023-06-14T05:19:31;17.60;53.50
15359;DHT22;7779;49.596;11.070;2023-06-14T05:21:57;17.80;53.40
15359;DHT22;7779;49.596;11.070;2023-06-14T05:24:22;18.00;53.20
15359;DHT22;7779;49.596;11.070;2023-06-14T05:26:48;18.20;53.10
15359;DHT22;7779;49.596;11.070;2023-06-14T05:29:14;18.40;52.80
15359;DHT22;7779;49.596;11.070;2023-06-14T05:31:40;18.60;52.60
15359;DHT22;7779;49.596;11.070;2023-06-14T05:34:06;18.80;52.40
15359;DHT22;7779;49.596;11.070;2023-06-14T05:36:31;19.00;52.30
15359;DHT22;7779;49.596;11.070;2023-06-14T05:38:57;19.10;52.10
15359;DHT22;7779;49.596;11.070;2023-06-14T05:41:26;19.30;51.80
15359;DHT22;7779;49.596;11.070;2023-06-14T05:43:53;19.50;51.60
15359;DHT22;7779;49.596;11.070;2023-06-14T05:46:20;19.70;51.00
15359;DHT22;7779;49.596;11.070;2023-06-14T05:48:49;19.70;51.30
15359;DHT22;7779;49.596;11.070;2023-06-14T05:51:16;19.90;51.20
15359;DHT22;7779;49.596;11.070;2023-06-14T05:53:45;20.10;51.00
15359;DHT22;7779;49.596;11.070;2023-06-14T05:56:12;20.20;50.70
15359;DHT22;7779;49.596;11.070;2023-06-14T05:58:38;20.30;50.40
15359;DHT22;7779;49.596;11.070;2023-06-14T06:01:03;20.40;50.30
15359;DHT22;7779;49.596;11.070;2023-06-14T06:03:29;20.60;50.30
15359;DHT22;7779;49.596;11.070;2023-06-14T06:05:55;20.60;50.00
15359;DHT22;7779;49.596;11.070;2023-06-14T06:08:21;20.70;49.60
15359;DHT22;7779;49.596;11.070;2023-06-14T06:10:46;20.70;49.20
15359;DHT22;7779;49.596;11.070;2023-06-14T06:13:12;20.80;49.10
15359;DHT22;7779;49.596;11.070;2023-06-14T06:15:38;20.80;48.90
15359;DHT22;7779;49.596;11.070;2023-06-14T06:18:04;20.80;48.80
15359;DHT22;7779;49.596;11.070;2023-06-14T06:20:29;20.80;48.00
15359;DHT22;7779;49.596;11.070;2023-06-14T06:23:00;20.80;48.70
15359;DHT22;7779;49.596;11.070;2023-06-14T06:25:26;20.90;48.40
15359;DHT22;7779;49.596;11.070;2023-06-14T06:27:53;20.80;48.30
15359;DHT22;7779;49.596;11.070;2023-06-14T06:30:20;20.90;48.40
15359;DHT22;7779;49.596;11.070;2023-06-14T06:32:46;20.90;48.40
15359;DHT22;7779;49.596;11.070;2023-06-14T06:35:13;21.00;48.40
15359;DHT22;7779;49.596;11.070;2023-06-14T06:37:41;21.00;48.20
15359;DHT22;7779;49.596;11.070;2023-06-14T06:40:07;21.10;48.20
15359;DHT22;7779;49.596;11.070;2023-06-14T06:42:34;21.10;48.10
15359;DHT22;7779;49.596;11.070;2023-06-14T06:45:04;21.20;48.10
15359;DHT22;7779;49.596;11.070;2023-06-14T06:47:30;21.30;48.10
15359;DHT22;7779;49.596;11.070;2023-06-14T06:49:56;21.40;47.90
15359;DHT22;7779;49.596;11.070;2023-06-14T06:52:22;21.50;47.70
15359;DHT22;7779;49.596;11.070;2023-06-14T06:54:47;21.50;47.50
15359;DHT22;7779;49.596;11.070;2023-06-14T06:57:14;21.60;47.30
15359;DHT22;7779;49.596;11.070;2023-06-14T06:59:40;21.60;47.20
15359;DHT22;7779;49.596;11.070;2023-06-14T07:02:06;21.50;46.90
15359;DHT22;7779;49.596;11.070;2023-06-14T07:04:32;21.50;46.80
15359;DHT22;7779;49.596;11.070;2023-06-14T07:06:57;21.40;46.70
15359;DHT22;7779;49.596;11.070;2023-06-14T07:09:23;21.30;46.10
15359;DHT22;7779;49.596;11.070;2023-06-14T07:11:50;21.30;46.70
15359;DHT22;7779;49.596;11.070;2023-06-14T07:14:16;21.40;46.80
15359;DHT22;7779;49.596;11.070;2023-06-14T07:16:42;21.20;46.70
15359;DHT22;7779;49.596;11.070;2023-06-14T07:19:08;21.10;46.50
15359;DHT22;7779;49.596;11.070;2023-06-14T07:21:36;21.20;47.10
15359;DHT22;7779;49.596;11.070;2023-06-14T07:24:06;21.20;47.20
15359;DHT22;7779;49.596;11.070;2023-06-14T07:26:33;21.30;47.40
15359;DHT22;7779;49.596;11.070;2023-06-14T07:28:59;21.40;47.60
15359;DHT22;7779;49.596;11.070;2023-06-14T07:31:25;21.50;47.60
15359;DHT22;7779;49.596;11.070;2023-06-14T07:33:52;21.60;47.50
15359;DHT22;7779;49.596;11.070;2023-06-14T07:36:17;21.70;47.20
15359;DHT22;7779;49.596;11.070;2023-06-14T07:38:43;21.70;47.00
15359;DHT22;7779;49.596;11.070;2023-06-14T07:41:09;21.80;47.00
15359;DHT22;7779;49.596;11.070;2023-06-14T07:43:35;21.90;47.80
15359;DHT22;7779;49.596;11.070;2023-06-14T07:46:01;21.90;47.10
15359;DHT22;7779;49.596;11.070;2023-06-14T07:48:28;22.00;47.00
15359;DHT22;7779;49.596;11.070;2023-06-14T07:50:53;22.10;46.90
15359;DHT22;7779;49.596;11.070;2023-06-14T07:53:19;22.20;46.70
15359;DHT22;7779;49.596;11.070;2023-06-14T07:55:45;22.20;46.00
15359;DHT22;7779;49.596;11.070;2023-06-14T07:58:12;22.30;46.50
15359;DHT22;7779;49.596;11.070;2023-06-14T08:00:38;22.40;46.40
15359;DHT22;7779;49.596;11.070;2023-06-14T08:03:04;22.40;46.20
15359;DHT22;7779;49.596;11.070;2023-06-14T08:05:30;22.50;46.10
15359;DHT22;7779;49.596;11.070;2023-06-14T08:07:56;22.50;46.10
15359;DHT22;7779;49.596;11.070;2023-06-14T08:10:22;22.70;46.30
15359;DHT22;7779;49.596;11.070;2023-06-14T08:12:48;22.70;46.10
15359;DHT22;7779;49.596;11.070;2023-06-14T08:15:18;22.80;46.10
15359;DHT22;7779;49.596;11.070;2023-06-14T08:17:44;22.80;45.70
15359;DHT22;7779;49.596;11.070;2023-06-14T08:20:11;22.80;45.40
15359;DHT22;7779;49.596;11.070;2023-06-14T08:22:39;22.90;45.00
15359;DHT22;7779;49.596;11.070;2023-06-14T08:25:08;22.90;44.80
15359;DHT22;7779;49.596;11.070;2023-06-14T08:27:34;23.00;44.60
15359;DHT22;7779;49.596;11.070;2023-06-14T08:30:01;23.00;44.40
15359;DHT22;7779;49.596;11.070;2023-06-14T08:32:27;23.00;44.10
15359;DHT22;7779;49.596;11.070;2023-06-14T08:34:53;23.00;44.10
15359;DHT22;7779;49.596;11.070;2023-06-14T08:37:19;23.10;44.10
15359;DHT22;7779;49.596;11.070;2023-06-14T08:39:46;23.10;43.90
15359;DHT22;7779;49.596;11.070;2023-06-14T08:42:12;23.10;43.60
15359;DHT22;7779;49.596;11.070;2023-06-14T08:44:39;23.10;43.30
15359;DHT22;7779;49.596;11.070;2023-06-14T08:47:06;23.10;43.30
15359;DHT22;7779;49.596;11.070;2023-06-14T08:49:33;23.10;43.30
15359;DHT22;7779;49.596;11.070;2023-06-14T08:52:01;23.10;43.40
15359;DHT22;7779;49.596;11.070;2023-06-14T08:54:30;23.20;43.30
15359;DHT22;7779;49.596;11.070;2023-06-14T08:56:57;23.20;43.10
15359;DHT22;7779;49.596;11.070;2023-06-14T08:59:27;23.20;43.20
15359;DHT22;7779;49.596;11.070;2023-06-14T09:01:54;23.30;43.20
15359;DHT22;7779;49.596;11.070;2023-06-14T09:04:23;23.40;43.20
15359;DHT22;7779;49.596;11.070;2023-06-14T09:06:55;23.40;42.90
15359;DHT22;7779;49.596;11.070;2023-06-14T09:09:22;23.50;41.60
15359;DHT22;7779;49.596;11.070;2023-06-14T09:11:50;23.50;42.60
15359;DHT22;7779;49.596;11.070;2023-06-14T09:14:17;23.60;42.60
15359;DHT22;7779;49.596;11.070;2023-06-14T09:16:44;23.60;42.60
15359;DHT22;7779;49.596;11.070;2023-06-14T09:19:20;23.70;41.60
15359;DHT22;7779;49.596;11.070;2023-06-14T09:21:48;23.80;42.00
15359;DHT22;7779;49.596;11.070;2023-06-14T09:24:14;24.00;42.50
15359;DHT22;7779;49.596;11.070;2023-06-14T09:26:40;24.00;42.20
15359;DHT22;7779;49.596;11.070;2023-06-14T09:29:06;24.10;42.00
15359;DHT22;7779;49.596;11.070;2023-06-14T09:31:32;24.20;41.90
15359;DHT22;7779;49.596;11.070;2023-06-14T09:33:58;24.30;41.80
15359;DHT22;7779;49.596;11.070;2023-06-14T09:36:27;24.40;41.80
15359;DHT22;7779;49.596;11.070;2023-06-14T09:38:58;24.50;40.90
15359;DHT22;7779;49.596;11.070;2023-06-14T09:41:39;24.50;41.10
15359;DHT22;7779;49.596;11.070;2023-06-14T09:44:10;24.60;40.60
15359;DHT22;7779;49.596;11.070;2023-06-14T09:46:38;24.70;40.70
15359;DHT22;7779;49.596;11.070;2023-06-14T09:49:04;24.70;40.60
15359;DHT22;7779;49.596;11.070;2023-06-14T09:51:31;24.80;40.50
15359;DHT22;7779;49.596;11.070;2023-06-14T09:54:03;24.80;40.50
15359;DHT22;7779;49.596;11.070;2023-06-14T09:56:36;24.80;40.20
15359;DHT22;7779;49.596;11.070;2023-06-14T09:59:05;24.80;40.50
15359;DHT22;7779;49.596;11.070;2023-06-14T10:01:33;24.80;40.40
15359;DHT22;7779;49.596;11.070;2023-06-14T10:04:05;24.80;40.40
15359;DHT22;7779;49.596;11.070;2023-06-14T10:06:36;24.80;40.10
15359;DHT22;7779;49.596;11.070;2023-06-14T10:09:04;24.80;40.20
15359;DHT22;7779;49.596;11.070;2023-06-14T10:11:35;24.80;40.20
15359;DHT22;7779;49.596;11.070;2023-06-14T10:14:02;24.80;40.00
15359;DHT22;7779;49.596;11.070;2023-06-14T10:16:45;24.80;39.80
15359;DHT22;7779;49.596;11.070;2023-06-14T10:19:23;24.80;39.40
15359;DHT22;7779;49.596;11.070;2023-06-14T10:22:04;24.80;39.10
15359;DHT22;7779;49.596;11.070;2023-06-14T10:24:45;24.80;39.60
15359;DHT22;7779;49.596;11.070;2023-06-14T10:27:14;24.90;39.10
15359;DHT22;7779;49.596;11.070;2023-06-14T10:32:21;24.90;38.80
15359;DHT22;7779;49.596;11.070;2023-06-14T10:35:00;24.90;39.10
15359;DHT22;7779;49.596;11.070;2023-06-14T10:37:32;24.90;38.40
15359;DHT22;7779;49.596;11.070;2023-06-14T10:39:58;24.90;38.90
15359;DHT22;7779;49.596;11.070;2023-06-14T10:42:31;24.90;38.70
15359;DHT22;7779;49.596;11.070;2023-06-14T10:44:58;24.90;38.40
15359;DHT22;7779;49.596;11.070;2023-06-14T10:47:33;24.90;38.60
15359;DHT22;7779;49.596;11.070;2023-06-14T10:50:06;24.90;38.40
15359;DHT22;7779;49.596;11.070;2023-06-14T10:52:37;24.90;38.00
15359;DHT22;7779;49.596;11.070;2023-06-14T10:55:11;24.90;38.10
15359;DHT22;7779;49.596;11.070;2023-06-14T10:57:51;24.90;37.70
15359;DHT22;7779;49.596;11.070;2023-06-14T11:00:33;25.00;37.90
15359;DHT22;7779;49.596;11.070;2023-06-14T11:03:42;25.00;37.40
15359;DHT22;7779;49.596;11.070;2023-06-14T11:06:15;25.00;37.20
15359;DHT22;7779;49.596;11.070;2023-06-14T11:11:36;25.10;37.20
15359;DHT22;7779;49.596;11.070;2023-06-14T11:14:04;25.10;37.90
15359;DHT22;7779;49.596;11.070;2023-06-14T11:16:30;25.10;37.60
15359;DHT22;7779;49.596;11.070;2023-06-14T11:19:00;25.10;37.60
15359;DHT22;7779;49.596;11.070;2023-06-14T11:21:28;25.10;37.30
15359;DHT22;7779;49.596;11.070;2023-06-14T11:23:57;25.20;37.70
15359;DHT22;7779;49.596;11.070;2023-06-14T11:26:30;25.20;37.60
15359;DHT22;7779;49.596;11.070;2023-06-14T11:28:59;25.30;36.50
15359;DHT22;7779;49.596;11.070;2023-06-14T11:31:29;25.40;37.50
15359;DHT22;7779;49.596;11.070;2023-06-14T11:33:57;25.50;37.20
15359;DHT22;7779;49.596;11.070;2023-06-14T11:36:26;25.60;37.30
15359;DHT22;7779;49.596;11.070;2023-06-14T11:39:02;25.80;37.30
15359;DHT22;7779;49.596;11.070;2023-06-14T11:41:44;25.90;37.20
15359;DHT22;7779;49.596;11.070;2023-06-14T11:44:11;26.00;36.70
15359;DHT22;7779;49.596;11.070;2023-06-14T11:46:37;26.10;37.20
15359;DHT22;7779;49.596;11.070;2023-06-14T11:49:04;26.30;37.10
15359;DHT22;7779;49.596;11.070;2023-06-14T11:51:33;26.40;36.80
15359;DHT22;7779;49.596;11.070;2023-06-14T11:54:01;26.50;36.80
15359;DHT22;7779;49.596;11.070;2023-06-14T11:56:29;26.90;36.70
15359;DHT22;7779;49.596;11.070;2023-06-14T11:58:55;26.70;36.20
15359;DHT22;7779;49.596;11.070;2023-06-14T12:01:22;26.70;36.20
15359;DHT22;7779;49.596;11.070;2023-06-14T12:03:49;26.80;36.00
15359;DHT22;7779;49.596;11.070;2023-06-14T12:06:16;26.90;35.80
15359;DHT22;7779;49.596;11.070;2023-06-14T12:08:55;27.00;35.70
15359;DHT22;7779;49.596;11.070;2023-06-14T12:11:22;27.00;35.20
15359;DHT22;7779;49.596;11.070;2023-06-14T12:13:48;27.10;35.00
15359;DHT22;7779;49.596;11.070;2023-06-14T12:16:14;27.10;34.80
15359;DHT22;7779;49.596;11.070;2023-06-14T12:18:41;27.00;34.50
15359;DHT22;7779;49.596;11.070;2023-06-14T12:21:09;27.00;34.50
15359;DHT22;7779;49.596;11.070;2023-06-14T12:23:53;27.00;34.40
15359;DHT22;7779;49.596;11.070;2023-06-14T12:26:20;27.10;33.50
15359;DHT22;7779;49.596;11.070;2023-06-14T12:28:47;27.00;34.40
15359;DHT22;7779;49.596;11.070;2023-06-14T12:31:14;27.10;34.40
15359;DHT22;7779;49.596;11.070;2023-06-14T12:33:41;27.10;34.20
15359;DHT22;7779;49.596;11.070;2023-06-14T12:36:09;27.10;34.30
15359;DHT22;7779;49.596;11.070;2023-06-14T12:38:36;27.20;34.30
15359;DHT22;7779;49.596;11.070;2023-06-14T12:41:03;27.10;33.50
15359;DHT22;7779;49.596;11.070;2023-06-14T12:43:29;27.10;34.10
15359;DHT22;7779;49.596;11.070;2023-06-14T12:45:55;27.10;33.90
15359;DHT22;7779;49.596;11.070;2023-06-14T12:48:21;27.00;33.90
15359;DHT22;7779;49.596;11.070;2023-06-14T12:50:47;27.10;34.60
15359;DHT22;7779;49.596;11.070;2023-06-14T12:53:13;26.80;33.90
15359;DHT22;7779;49.596;11.070;2023-06-14T12:55:39;26.80;34.00
15359;DHT22;7779;49.596;11.070;2023-06-14T12:58:05;26.80;33.90
15359;DHT22;7779;49.596;11.070;2023-06-14T13:00:31;26.80;33.70
15359;DHT22;7779;49.596;11.070;2023-06-14T13:02:57;26.70;33.70
15359;DHT22;7779;49.596;11.070;2023-06-14T13:05:23;26.70;33.70
15359;DHT22;7779;49.596;11.070;2023-06-14T13:07:49;26.70;33.70
15359;DHT22;7779;49.596;11.070;2023-06-14T13:10:16;26.70;33.70
15359;DHT22;7779;49.596;11.070;2023-06-14T13:12:42;26.60;33.50
15359;DHT22;7779;49.596;11.070;2023-06-14T13:15:08;26.60;33.50
15359;DHT22;7779;49.596;11.070;2023-06-14T13:17:35;26.60;34.00
15359;DHT22;7779;49.596;11.070;2023-06-14T13:20:07;26.60;33.40
15359;DHT22;7779;49.596;11.070;2023-06-14T13:22:34;26.50;33.10
15359;DHT22;7779;49.596;11.070;2023-06-14T13:25:01;26.50;33.20
15359;DHT22;7779;49.596;11.070;2023-06-14T13:27:28;26.60;33.30
15359;DHT22;7779;49.596;11.070;2023-06-14T13:29:53;26.60;33.10
15359;DHT22;7779;49.596;11.070;2023-06-14T13:32:21;26.50;33.10
15359;DHT22;7779;49.596;11.070;2023-06-14T13:34:48;26.60;33.00
15359;DHT22;7779;49.596;11.070;2023-06-14T13:37:14;26.60;33.00
15359;DHT22;7779;49.596;11.070;2023-06-14T13:39:40;26.60;33.10
15359;DHT22;7779;49.596;11.070;2023-06-14T13:42:06;26.60;33.10
15359;DHT22;7779;49.596;11.070;2023-06-14T13:44:32;26.70;33.20
15359;DHT22;7779;49.596;11.070;2023-06-14T13:46:57;26.80;33.20
15359;DHT22;7779;49.596;11.070;2023-06-14T13:49:23;26.90;32.40
15359;DHT22;7779;49.596;11.070;2023-06-14T13:51:49;26.90;33.10
15359;DHT22;7779;49.596;11.070;2023-06-14T13:54:19;26.90;32.70
15359;DHT22;7779;49.596;11.070;2023-06-14T13:56:46;27.00;32.30
15359;DHT22;7779;49.596;11.070;2023-06-14T13:59:13;26.90;32.20
15359;DHT22;7779;49.596;11.070;2023-06-14T14:01:40;26.90;31.90
15359;DHT22;7779;49.596;11.070;2023-06-14T14:04:05;26.90;31.60
15359;DHT22;7779;49.596;11.070;2023-06-14T14:06:31;26.80;31.50
15359;DHT22;7779;49.596;11.070;2023-06-14T14:08:57;26.70;31.50
15359;DHT22;7779;49.596;11.070;2023-06-14T14:11:23;26.70;31.60
15359;DHT22;7779;49.596;11.070;2023-06-14T14:13:49;26.70;31.70
15359;DHT22;7779;49.596;11.070;2023-06-14T14:16:15;26.70;31.80
15359;DHT22;7779;49.596;11.070;2023-06-14T14:18:42;26.70;31.90
15359;DHT22;7779;49.596;11.070;2023-06-14T14:21:08;26.70;32.00
15359;DHT22;7779;49.596;11.070;2023-06-14T14:23:34;26.70;32.20
15359;DHT22;7779;49.596;11.070;2023-06-14T14:26:00;26.70;32.10
15359;DHT22;7779;49.596;11.070;2023-06-14T14:28:29;26.70;32.00
15359;DHT22;7779;49.596;11.070;2023-06-14T14:30:55;26.70;32.20
15359;DHT22;7779;49.596;11.070;2023-06-14T14:33:20;26.70;32.10
15359;DHT22;7779;49.596;11.070;2023-06-14T14:35:46;26.70;32.10
15359;DHT22;7779;49.596;11.070;2023-06-14T14:38:13;26.60;32.10
15359;DHT22;7779;49.596;11.070;2023-06-14T14:40:40;26.60;32.10
15359;DHT22;7779;49.596;11.070;2023-06-14T14:43:07;26.60;32.00
15359;DHT22;7779;49.596;11.070;2023-06-14T14:45:33;26.50;31.90
15359;DHT22;7779;49.596;11.070;2023-06-14T14:48:00;26.50;31.90
15359;DHT22;7779;49.596;11.070;2023-06-14T14:50:27;26.40;31.70
15359;DHT22;7779;49.596;11.070;2023-06-14T14:52:52;26.40;31.70
15359;DHT22;7779;49.596;11.070;2023-06-14T14:55:18;26.80;32.00
15359;DHT22;7779;49.596;11.070;2023-06-14T14:57:45;26.20;31.70
15359;DHT22;7779;49.596;11.070;2023-06-14T15:00:12;26.20;31.80
15359;DHT22;7779;49.596;11.070;2023-06-14T15:02:38;26.10;31.90
15359;DHT22;7779;49.596;11.070;2023-06-14T15:05:04;26.10;32.00
15359;DHT22;7779;49.596;11.070;2023-06-14T15:07:31;26.10;32.10
15359;DHT22;7779;49.596;11.070;2023-06-14T15:09:57;26.10;32.10
15359;DHT22;7779;49.596;11.070;2023-06-14T15:12:23;26.00;32.20
15359;DHT22;7779;49.596;11.070;2023-06-14T15:14:52;26.00;32.40
15359;DHT22;7779;49.596;11.070;2023-06-14T15:17:22;26.00;32.60
15359;DHT22;7779;49.596;11.070;2023-06-14T15:19:49;26.00;32.70
15359;DHT22;7779;49.596;11.070;2023-06-14T15:22:16;26.00;33.40
15359;DHT22;7779;49.596;11.070;2023-06-14T15:24:42;26.00;32.90
15359;DHT22;7779;49.596;11.070;2023-06-14T15:27:09;26.00;33.00
15359;DHT22;7779;49.596;11.070;2023-06-14T15:29:36;26.10;32.90
15359;DHT22;7779;49.596;11.070;2023-06-14T15:32:02;26.10;32.90
15359;DHT22;7779;49.596;11.070;2023-06-14T15:34:28;26.10;32.80
15359;DHT22;7779;49.596;11.070;2023-06-14T15:36:54;26.10;32.70
15359;DHT22;7779;49.596;11.070;2023-06-14T15:39:19;26.20;32.70
15359;DHT22;7779;49.596;11.070;2023-06-14T15:41:45;26.20;32.70